Captain Jimmy T Moran — WDE6653 — position and weather

sailwx.info

Track history (hours):
 
Tides and Currents Weather Stations Pressure Air Temp Water Temp Dewpoint Dewpoint Depression Visibility Wind Speed Wind Dir Waves Ship Positions

Captain Jimmy T Moran

Owner: Moran Towing Corp, New Cannan, CT. More information available from US FCC via Universal Licensing System and Coast Guard Vessel Documentation Center.

Last reported at 2015-Mar-26 23:21 UTC. Time now 2015-Mar-27 08:12 UTC.
Position N 29°55' W 090°07'.

Length 26 m; draft 4.9 m.

Type: Tug. MMSI: 367382920.

Date/timePositionNaut miles runAvg speedWind from/ knotsBaromVisibWave heightAir tempDewpointWater temp
2015-Mar-26 23:21N 29°55' W 090°07'1 0.6
2015-Mar-26 22:33N 29°55' W 090°06'1 1.1
2015-Mar-26 21:30N 29°55' W 090°05'0 0.3
2015-Mar-26 20:33N 29°55' W 090°04'0 0.0
2015-Mar-26 19:33N 29°55' W 090°04'0 0.0
2015-Mar-26 18:33N 29°55' W 090°04'0 0.0
2015-Mar-26 17:34N 29°55' W 090°04'0 0.0
2015-Mar-26 16:33N 29°55' W 090°04'0 0.0
2015-Mar-26 15:27N 29°55' W 090°04'0 0.0
2015-Mar-26 14:33N 29°55' W 090°04'0 0.3
2015-Mar-26 13:33N 29°55' W 090°05'3 1.0
2015-Mar-26 10:33N 29°55' W 090°08'0 0.0
2015-Mar-24 16:20N 29°55' W 090°08'2 0.3
2015-Mar-24 10:11N 29°55' W 090°06'1 0.9
2015-Mar-24 09:22N 29°55' W 090°05'1 0.1
2015-Mar-23 22:04N 29°55' W 090°06'0 0.0
2015-Mar-23 21:30N 29°55' W 090°06'2 0.7
2015-Mar-23 19:19N 29°55' W 090°04'0 0.0
2015-Mar-23 18:08N 29°55' W 090°04'0 0.0
2015-Mar-23 17:28N 29°55' W 090°04'0 0.0
2015-Mar-23 16:28N 29°55' W 090°04'0 0.0
2015-Mar-23 15:33N 29°55' W 090°04'0 0.0
2015-Mar-23 14:33N 29°55' W 090°04'0 0.0
2015-Mar-23 13:30N 29°55' W 090°04'0 0.0
2015-Mar-23 12:31N 29°55' W 090°04'4 4.0
2015-Mar-23 11:33N 29°56' W 089°60'5 0.7
2015-Mar-23 03:26N 29°55' W 090°06'0 0.0
2015-Mar-23 02:33N 29°55' W 090°06'0 0.0
2015-Mar-23 01:30N 29°55' W 090°06'0 0.0
2015-Mar-23 00:32N 29°55' W 090°06'0 0.0
2015-Mar-22 23:28N 29°55' W 090°06'0 0.0
2015-Mar-22 22:31N 29°55' W 090°06'0 0.0
2015-Mar-22 21:21N 29°55' W 090°06'2 0.3
2015-Mar-22 15:10N 29°55' W 090°08'2 0.2
2015-Mar-22 02:05N 29°55' W 090°06'0 0.0
2015-Mar-21 11:26N 29°55' W 090°06'0 0.0
2015-Mar-21 10:15N 29°55' W 090°06'0 0.0
2015-Mar-21 09:33N 29°55' W 090°06'0 0.0
2015-Mar-21 08:14N 29°55' W 090°06'0 0.0
2015-Mar-21 06:18N 29°55' W 090°06'0 0.0
2015-Mar-20 21:30N 29°55' W 090°06'0 0.1
2015-Mar-20 16:32N 29°55' W 090°06'0 0.0
2015-Mar-20 03:30N 29°55' W 090°06'2 2.0
2015-Mar-20 02:33N 29°56' W 090°04'5 4.7
2015-Mar-20 01:33N 29°56' W 089°58'  
Track history (hours):
 
Tides and Currents Weather Stations Pressure Air Temp Water Temp Dewpoint Dewpoint Depression Visibility Wind Speed Wind Dir Waves Ship Positions

Captain Jimmy T Moran

Owner: Moran Towing Corp, New Cannan, CT. More information available from US FCC via Universal Licensing System and Coast Guard Vessel Documentation Center.

Last reported at 2015-Mar-26 23:21 UTC. Time now 2015-Mar-27 08:12 UTC.
Position N 29°55' W 090°07'.

Length 26 m; draft 4.9 m.

Type: Tug. MMSI: 367382920.

Date/timePositionNaut miles runAvg speedWind from/ knotsBaromVisibWave heightAir tempDewpointWater temp
2015-Mar-26 23:21N 29°55' W 090°07'1 0.6
2015-Mar-26 22:33N 29°55' W 090°06'1 1.1
2015-Mar-26 21:30N 29°55' W 090°05'0 0.3
2015-Mar-26 20:33N 29°55' W 090°04'0 0.0
2015-Mar-26 19:33N 29°55' W 090°04'0 0.0
2015-Mar-26 18:33N 29°55' W 090°04'0 0.0
2015-Mar-26 17:34N 29°55' W 090°04'0 0.0
2015-Mar-26 16:33N 29°55' W 090°04'0 0.0
2015-Mar-26 15:27N 29°55' W 090°04'0 0.0
2015-Mar-26 14:33N 29°55' W 090°04'0 0.3
2015-Mar-26 13:33N 29°55' W 090°05'3 1.0
2015-Mar-26 10:33N 29°55' W 090°08'0 0.0
2015-Mar-24 16:20N 29°55' W 090°08'2 0.3
2015-Mar-24 10:11N 29°55' W 090°06'1 0.9
2015-Mar-24 09:22N 29°55' W 090°05'1 0.1
2015-Mar-23 22:04N 29°55' W 090°06'0 0.0
2015-Mar-23 21:30N 29°55' W 090°06'2 0.7
2015-Mar-23 19:19N 29°55' W 090°04'0 0.0
2015-Mar-23 18:08N 29°55' W 090°04'0 0.0
2015-Mar-23 17:28N 29°55' W 090°04'0 0.0
2015-Mar-23 16:28N 29°55' W 090°04'0 0.0
2015-Mar-23 15:33N 29°55' W 090°04'0 0.0
2015-Mar-23 14:33N 29°55' W 090°04'0 0.0
2015-Mar-23 13:30N 29°55' W 090°04'0 0.0
2015-Mar-23 12:31N 29°55' W 090°04'4 4.0
2015-Mar-23 11:33N 29°56' W 089°60'5 0.7
2015-Mar-23 03:26N 29°55' W 090°06'0 0.0
2015-Mar-23 02:33N 29°55' W 090°06'0 0.0
2015-Mar-23 01:30N 29°55' W 090°06'0 0.0
2015-Mar-23 00:32N 29°55' W 090°06'0 0.0
2015-Mar-22 23:28N 29°55' W 090°06'0 0.0
2015-Mar-22 22:31N 29°55' W 090°06'0 0.0
2015-Mar-22 21:21N 29°55' W 090°06'2 0.3
2015-Mar-22 15:10N 29°55' W 090°08'2 0.2
2015-Mar-22 02:05N 29°55' W 090°06'0 0.0
2015-Mar-21 11:26N 29°55' W 090°06'0 0.0
2015-Mar-21 10:15N 29°55' W 090°06'0 0.0
2015-Mar-21 09:33N 29°55' W 090°06'0 0.0
2015-Mar-21 08:14N 29°55' W 090°06'0 0.0
2015-Mar-21 06:18N 29°55' W 090°06'0 0.0
2015-Mar-20 21:30N 29°55' W 090°06'0 0.1
2015-Mar-20 16:32N 29°55' W 090°06'0 0.0
2015-Mar-20 03:30N 29°55' W 090°06'2 2.0
2015-Mar-20 02:33N 29°56' W 090°04'5 4.7
2015-Mar-20 01:33N 29°56' W 089°58'  

Dump ship's entire track history